Time;durP1;ratioP1;P1;durP2;ratioP2;P2;SDS_P1;SDS_P2;PMS_P1;PMS_P2;Temp;Humidity;BMP_temperature;BMP_pressure;BME280_temperature;BME280_humidity;BME280_pressure;Samples;Min_cycle;Max_cycle;Signal;HPM_P1;HPM_P2
2023/06/08 00:01:54;;;;;;;8.20;7.25;;;23.40;92.20;;;;;;6217762;23;20008;-82
2023/06/08 00:04:22;;;;;;;10.20;7.88;;;23.30;92.20;;;;;;6216380;23;20021;-83
2023/06/08 00:06:49;;;;;;;8.93;8.02;;;23.30;92.20;;;;;;6217027;23;20015;-82
2023/06/08 00:09:16;;;;;;;13.73;10.60;;;23.20;92.30;;;;;;6217267;23;20001;-83
2023/06/08 00:11:41;;;;;;;9.32;8.30;;;23.20;92.10;;;;;;6215090;23;20462;-82
2023/06/08 00:14:08;;;;;;;8.15;7.35;;;23.10;92.10;;;;;;6210949;23;20001;-82
2023/06/08 00:16:38;;;;;;;9.75;7.32;;;23.10;92.00;;;;;;6216957;23;20036;-82
2023/06/08 00:19:03;;;;;;;8.13;7.32;;;23.10;92.00;;;;;;6216562;23;20032;-82
2023/06/08 00:21:33;;;;;;;7.80;7.00;;;23.10;91.80;;;;;;6216560;23;20043;-82
2023/06/08 00:23:59;;;;;;;7.82;7.03;;;23.10;91.80;;;;;;6215770;23;20001;-82
2023/06/08 00:26:26;;;;;;;9.18;6.93;;;23.10;91.80;;;;;;6216665;23;20005;-82
2023/06/08 00:28:52;;;;;;;7.97;6.70;;;23.10;91.60;;;;;;6216855;23;20346;-82
2023/06/08 00:31:18;;;;;;;7.88;7.07;;;23.10;91.50;;;;;;6216880;23;20039;-82
2023/06/08 00:33:44;;;;;;;9.18;6.10;;;23.10;91.40;;;;;;6216776;23;20051;-82
2023/06/08 00:36:10;;;;;;;8.07;7.05;;;23.10;91.40;;;;;;6216383;23;20000;-82
2023/06/08 00:38:36;;;;;;;7.10;6.40;;;23.00;91.30;;;;;;6216780;23;20001;-82
2023/06/08 00:41:02;;;;;;;7.60;6.05;;;23.00;91.20;;;;;;6216826;23;20104;-82
2023/06/08 00:43:27;;;;;;;8.07;5.97;;;23.00;91.20;;;;;;6216614;23;20415;-82
2023/06/08 00:45:55;;;;;;;6.97;5.47;;;23.00;91.20;;;;;;6203655;23;20060;-82
2023/06/08 00:48:22;;;;;;;7.57;6.20;;;23.00;91.30;;;;;;6216001;23;20004;-82
2023/06/08 00:50:48;;;;;;;6.90;6.18;;;23.00;91.30;;;;;;6216653;23;20005;-82
2023/06/08 00:53:14;;;;;;;7.55;6.07;;;22.90;91.20;;;;;;6216909;23;20058;-82
2023/06/08 00:55:43;;;;;;;6.53;5.70;;;22.90;91.20;;;;;;6216715;23;20479;-81
2023/06/08 00:58:13;;;;;;;6.57;5.97;;;22.90;91.10;;;;;;6216901;23;19997;-81
2023/06/08 01:00:39;;;;;;;;;;;22.90;91.10;;;;;;6216495;23;20001;-81
2023/06/08 01:03:06;;;;;;;6.75;5.80;;;22.90;91.10;;;;;;6216655;23;19904;-81
2023/06/08 01:05:32;;;;;;;6.32;5.70;;;22.90;91.00;;;;;;6206680;23;20481;-82
2023/06/08 01:08:37;;;;;;;6.80;6.10;;;22.90;91.10;;;;;;6211554;23;20415;-81
2023/06/08 01:11:23;;;;;;;7.38;5.95;;;22.90;91.10;;;;;;6215690;23;20092;-81
2023/06/08 01:14:13;;;;;;;7.95;6.10;;;22.90;91.10;;;;;;6216401;23;20031;-81
2023/06/08 01:16:49;;;;;;;6.20;5.60;;;22.90;91.10;;;;;;6206730;23;20398;-81
2023/06/08 01:19:23;;;;;;;6.55;5.43;;;22.90;91.20;;;;;;6212965;23;20038;-81
2023/06/08 01:22:11;;;;;;;9.38;5.78;;;22.90;91.20;;;;;;6215987;23;20000;-80
2023/06/08 01:24:38;;;;;;;6.25;5.57;;;22.90;91.20;;;;;;6216440;23;20466;-81
2023/06/08 01:27:07;;;;;;;6.28;5.38;;;22.90;91.20;;;;;;6215752;23;20000;-81
2023/06/08 01:29:33;;;;;;;8.45;5.28;;;22.90;91.10;;;;;;6215743;23;20408;-81
2023/06/08 01:32:00;;;;;;;6.18;5.57;;;22.90;91.20;;;;;;6188965;23;20020;-81
2023/06/08 01:34:26;;;;;;;5.85;5.35;;;22.90;91.20;;;;;;6212119;23;20071;-81
2023/06/08 01:37:06;;;;;;;7.55;5.55;;;22.90;91.50;;;;;;6216579;23;20050;-84
2023/06/08 01:39:41;;;;;;;8.50;5.82;;;22.90;91.30;;;;;;6216119;23;20001;-83
2023/06/08 01:42:08;;;;;;;6.68;5.88;;;22.90;91.30;;;;;;6214505;23;20028;-83
2023/06/08 01:44:40;;;;;;;7.43;5.93;;;22.90;91.20;;;;;;6187056;23;20329;-83
2023/06/08 01:47:07;;;;;;;9.23;5.55;;;22.80;91.20;;;;;;6215969;23;20004;-83
2023/06/08 01:49:33;;;;;;;7.75;6.75;;;22.80;91.10;;;;;;6215844;23;20039;-83
2023/06/08 01:52:00;;;;;;;7.03;6.32;;;22.80;91.10;;;;;;6215851;23;20008;-82
2023/06/08 01:54:26;;;;;;;7.65;6.18;;;22.70;91.10;;;;;;6215561;23;20001;-81
2023/06/08 01:56:51;;;;;;;8.30;6.07;;;22.70;91.20;;;;;;6216195;23;20085;-81
2023/06/08 01:59:17;;;;;;;6.57;5.88;;;22.70;91.20;;;;;;6216153;23;20001;-82
2023/06/08 02:01:43;;;;;;;6.93;6.00;;;22.70;91.30;;;;;;6215514;23;20001;-82
2023/06/08 02:04:08;;;;;;;8.77;5.80;;;22.60;91.20;;;;;;6214154;23;20386;-82
2023/06/08 02:06:35;;;;;;;5.78;4.97;;;22.60;91.20;;;;;;6204155;23;20371;-82
2023/06/08 02:09:00;;;;;;;6.55;5.28;;;22.60;91.10;;;;;;6214230;23;20005;-82
2023/06/08 02:11:26;;;;;;;6.50;4.32;;;22.60;91.10;;;;;;6215820;23;20004;-82
2023/06/08 02:13:52;;;;;;;5.18;4.40;;;22.50;90.80;;;;;;6215456;23;20055;-82
2023/06/08 02:16:20;;;;;;;5.65;4.22;;;22.50;90.70;;;;;;6216009;23;20066;-83
2023/06/08 02:18:47;;;;;;;5.03;4.43;;;22.50;90.60;;;;;;6215915;23;19996;-83
2023/06/08 02:21:12;;;;;;;4.80;4.30;;;22.40;90.50;;;;;;6215820;23;20000;-83
2023/06/08 02:23:39;;;;;;;5.95;4.03;;;22.40;90.50;;;;;;6215992;23;20375;-83
2023/06/08 02:26:07;;;;;;;4.55;4.13;;;22.40;90.50;;;;;;6212608;23;20157;-82
2023/06/08 02:28:33;;;;;;;9.52;4.13;;;22.40;90.40;;;;;;6208285;23;20008;-82
2023/06/08 02:31:00;;;;;;;6.70;4.32;;;22.40;90.20;;;;;;6189069;23;20005;-82
2023/06/08 02:33:25;;;;;;;7.25;4.78;;;22.40;90.20;;;;;;6215418;23;20008;-82
2023/06/08 02:35:51;;;;;;;13.23;4.38;;;22.30;90.20;;;;;;6215669;23;19997;-82
2023/06/08 02:38:17;;;;;;;4.93;4.15;;;22.30;90.20;;;;;;6215242;23;20028;-82
2023/06/08 02:40:43;;;;;;;4.18;3.78;;;22.20;90.30;;;;;;6209415;23;20031;-82
2023/06/08 02:43:08;;;;;;;5.82;4.43;;;22.20;90.30;;;;;;6209614;23;20008;-82
2023/06/08 02:45:34;;;;;;;5.57;4.40;;;22.20;90.30;;;;;;6215849;23;20008;-83
2023/06/08 02:48:01;;;;;;;6.53;4.22;;;22.20;90.20;;;;;;6214932;23;20016;-83
2023/06/08 02:50:26;;;;;;;6.65;3.95;;;22.20;90.10;;;;;;6188520;23;20056;-82
2023/06/08 02:52:52;;;;;;;4.88;4.38;;;22.20;90.00;;;;;;6215037;23;20292;-82
2023/06/08 02:55:18;;;;;;;5.57;4.68;;;22.20;90.00;;;;;;6215423;23;20327;-82
2023/06/08 02:57:48;;;;;;;8.98;4.18;;;22.10;90.00;;;;;;6214549;23;19993;-82
2023/06/08 03:00:14;;;;;;;4.43;4.00;;;22.20;90.00;;;;;;6215682;23;20000;-82
2023/06/08 03:02:40;;;;;;;5.97;4.22;;;22.20;90.00;;;;;;6215995;23;20024;-82
2023/06/08 03:05:06;;;;;;;4.53;4.13;;;22.10;89.80;;;;;;6214917;23;20001;-82
2023/06/08 03:07:40;;;;;;;4.70;3.90;;;22.10;89.70;;;;;;6215074;23;20071;-82
2023/06/08 03:10:06;;;;;;;4.35;3.83;;;22.10;89.60;;;;;;6215176;23;20084;-82
2023/06/08 03:12:32;;;;;;;4.63;3.67;;;22.10;89.60;;;;;;6214354;23;20446;-81
2023/06/08 03:14:58;;;;;;;4.55;3.65;;;22.10;89.70;;;;;;6209448;23;20009;-82
2023/06/08 03:17:27;;;;;;;4.57;3.67;;;22.10;89.80;;;;;;6214398;23;20025;-82
2023/06/08 03:19:55;;;;;;;4.70;4.30;;;22.10;89.70;;;;;;6189135;23;20004;-81
2023/06/08 03:22:21;;;;;;;6.70;4.70;;;22.00;89.70;;;;;;6215721;23;20004;-81
2023/06/08 03:24:50;;;;;;;4.85;3.90;;;22.00;90.00;;;;;;6215138;23;20098;-82
2023/06/08 03:27:16;;;;;;;5.47;4.30;;;21.90;90.00;;;;;;6212957;23;20331;-82
2023/06/08 03:29:42;;;;;;;6.47;4.53;;;21.90;90.10;;;;;;6214917;23;20431;-82
2023/06/08 03:32:08;;;;;;;4.78;4.25;;;21.80;90.20;;;;;;6215256;23;20080;-82
2023/06/08 03:34:34;;;;;;;5.32;4.60;;;21.80;90.20;;;;;;6215220;23;20051;-82
2023/06/08 03:37:00;;;;;;;5.82;4.25;;;21.80;90.20;;;;;;6215164;23;20001;-82
2023/06/08 03:39:26;;;;;;;6.75;4.65;;;21.80;90.30;;;;;;6213933;23;20063;-82
2023/06/08 03:41:52;;;;;;;4.95;4.38;;;21.80;90.30;;;;;;6215041;23;19996;-82
2023/06/08 03:44:18;;;;;;;6.55;4.38;;;21.80;90.30;;;;;;6188333;23;20008;-82
2023/06/08 03:46:45;;;;;;;4.85;4.35;;;21.80;90.10;;;;;;6215252;23;20000;-82
2023/06/08 03:49:10;;;;;;;4.72;3.72;;;21.80;90.00;;;;;;6213656;23;20100;-81
2023/06/08 03:51:37;;;;;;;6.47;4.43;;;21.80;90.00;;;;;;6185214;23;20499;-82
2023/06/08 03:54:03;;;;;;;4.85;4.20;;;21.80;90.00;;;;;;6212440;23;20005;-82
2023/06/08 03:56:29;;;;;;;5.30;4.35;;;21.80;90.00;;;;;;6215346;23;20003;-82
2023/06/08 03:58:56;;;;;;;5.53;4.22;;;21.80;89.80;;;;;;6213606;23;20004;-82
2023/06/08 04:01:22;;;;;;;4.90;3.55;;;21.80;89.70;;;;;;6215386;23;20031;-82
2023/06/08 04:03:49;;;;;;;4.28;3.47;;;21.70;89.60;;;;;;6214490;23;20005;-82
2023/06/08 04:06:16;;;;;;;4.30;3.90;;;21.70;89.50;;;;;;6188712;23;20083;-82
2023/06/08 04:08:44;;;;;;;12.75;4.80;;;21.70;89.50;;;;;;6215350;23;20082;-82
2023/06/08 04:11:10;;;;;;;4.70;3.92;;;21.60;89.50;;;;;;6214722;23;20005;-82
2023/06/08 04:13:36;;;;;;;4.65;3.97;;;21.60;89.70;;;;;;6212783;23;20005;-82
2023/06/08 04:16:08;;;;;;;5.55;4.57;;;21.60;90.00;;;;;;6214023;23;20035;-82
2023/06/08 04:18:41;;;;;;;5.22;4.43;;;21.60;90.00;;;;;;6215181;23;20011;-82
2023/06/08 04:21:08;;;;;;;5.00;4.50;;;21.60;90.10;;;;;;6189515;23;20005;-82
2023/06/08 04:23:34;;;;;;;6.47;4.95;;;21.60;90.20;;;;;;6216805;23;20008;-80
2023/06/08 04:26:05;;;;;;;5.88;4.68;;;21.60;90.30;;;;;;6216685;23;20601;-79
2023/06/08 04:28:33;;;;;;;5.53;4.30;;;21.60;90.40;;;;;;6217156;23;20007;-79
2023/06/08 04:30:59;;;;;;;5.30;4.65;;;21.50;90.40;;;;;;6216192;23;20028;-79
2023/06/08 04:33:26;;;;;;;6.05;4.18;;;21.50;90.40;;;;;;6216833;23;20004;-80
2023/06/08 04:35:51;;;;;;;4.75;4.28;;;21.50;90.40;;;;;;6216675;23;20071;-80
2023/06/08 04:38:17;;;;;;;6.32;4.93;;;21.50;90.50;;;;;;6215788;23;20024;-79
2023/06/08 04:40:53;;;;;;;4.93;4.35;;;21.50;90.50;;;;;;6190039;23;20312;-79
2023/06/08 04:43:25;;;;;;;4.93;4.43;;;21.50;90.60;;;;;;6216334;23;20004;-79
2023/06/08 04:45:59;;;;;;;6.72;4.47;;;21.50;90.60;;;;;;6216206;23;20005;-79
2023/06/08 04:48:28;;;;;;;5.40;4.50;;;21.50;90.60;;;;;;6216825;23;20015;-79
2023/06/08 04:50:59;;;;;;;5.32;4.57;;;21.50;90.60;;;;;;6216745;23;20011;-79
2023/06/08 04:53:25;;;;;;;5.80;3.90;;;21.50;90.60;;;;;;6215860;23;20009;-79
2023/06/08 04:55:57;;;;;;;5.30;4.15;;;21.50;90.60;;;;;;6215989;23;19996;-89
2023/06/08 04:58:26;;;;;;;7.68;4.47;;;21.50;90.50;;;;;;6215625;23;20001;-79
2023/06/08 05:00:52;;;;;;;6.78;3.85;;;21.50;90.50;;;;;;6215249;23;20008;-79
2023/06/08 05:03:19;;;;;;;5.10;4.35;;;21.50;90.40;;;;;;6215007;23;20431;-79
2023/06/08 05:05:45;;;;;;;6.45;4.50;;;21.50;90.40;;;;;;6215757;23;20351;-77
2023/06/08 05:08:11;;;;;;;5.07;3.83;;;21.50;90.40;;;;;;6216424;23;20004;-80
2023/06/08 05:10:37;;;;;;;8.55;4.88;;;21.60;90.30;;;;;;6215323;23;20379;-78
2023/06/08 05:13:02;;;;;;;4.82;4.30;;;21.60;90.40;;;;;;6215213;23;20435;-79
2023/06/08 05:15:30;;;;;;;4.78;4.28;;;21.60;90.30;;;;;;6215234;23;20367;-79
2023/06/08 05:17:56;;;;;;;6.72;4.00;;;21.70;90.30;;;;;;6215813;23;20446;-84
2023/06/08 05:20:24;;;;;;;4.35;3.95;;;21.80;90.30;;;;;;6215944;23;19996;-78
2023/06/08 05:22:50;;;;;;;3.97;3.33;;;21.80;90.10;;;;;;6215707;23;20008;-78
2023/06/08 05:25:16;;;;;;;4.20;3.35;;;21.80;90.00;;;;;;6215185;23;20016;-78
2023/06/08 05:27:42;;;;;;;5.15;4.03;;;21.90;89.90;;;;;;6213053;23;20008;-78
2023/06/08 05:30:08;;;;;;;4.75;3.90;;;21.90;89.60;;;;;;6214877;23;20363;-78
2023/06/08 05:32:34;;;;;;;3.67;3.38;;;22.00;89.30;;;;;;6214463;23;20008;-78
2023/06/08 05:35:00;;;;;;;4.78;3.67;;;22.00;89.10;;;;;;6214886;23;20008;-77
2023/06/08 05:37:26;;;;;;;4.68;4.20;;;22.00;89.20;;;;;;6214877;23;20005;-78
2023/06/08 05:39:52;;;;;;;6.22;3.20;;;22.10;89.30;;;;;;6214910;23;19996;-77
2023/06/08 05:42:17;;;;;;;4.53;3.45;;;22.10;89.10;;;;;;6214045;23;20393;-78
2023/06/08 05:44:44;;;;;;;3.15;2.85;;;22.10;89.10;;;;;;6213980;23;20004;-77
2023/06/08 05:47:10;;;;;;;5.15;3.13;;;22.20;89.10;;;;;;6215338;23;20004;-77
2023/06/08 05:49:35;;;;;;;6.28;3.55;;;22.20;89.20;;;;;;6215469;23;20011;-78
2023/06/08 05:52:01;;;;;;;3.75;2.65;;;22.20;88.60;;;;;;6216085;23;20423;-80
2023/06/08 05:54:27;;;;;;;6.03;3.28;;;22.30;88.90;;;;;;6215251;23;20011;-80
2023/06/08 05:56:52;;;;;;;5.07;3.50;;;22.30;89.30;;;;;;6214647;23;20001;-85
2023/06/08 05:59:18;;;;;;;4.25;3.25;;;22.30;90.00;;;;;;6214553;23;20001;-81
2023/06/08 06:01:45;;;;;;;4.65;3.13;;;22.40;89.50;;;;;;6214031;23;20004;-80
2023/06/08 06:04:11;;;;;;;4.05;3.17;;;22.40;89.50;;;;;;6213586;23;20005;-79
2023/06/08 06:06:37;;;;;;;4.13;3.35;;;22.50;89.70;;;;;;6214368;23;20012;-79
2023/06/08 06:09:03;;;;;;;4.43;3.50;;;22.50;89.80;;;;;;6213407;23;20334;-79
2023/06/08 06:11:30;;;;;;;5.50;4.05;;;22.60;89.70;;;;;;6214100;23;20450;-79
2023/06/08 06:13:57;;;;;;;4.07;3.17;;;22.60;89.70;;;;;;6214523;23;20011;-80
2023/06/08 06:16:23;;;;;;;3.20;2.80;;;22.70;89.80;;;;;;6214263;23;20020;-79
2023/06/08 06:18:49;;;;;;;3.47;2.97;;;22.70;89.80;;;;;;6188102;23;20004;-81
2023/06/08 06:21:15;;;;;;;3.10;2.80;;;22.80;89.80;;;;;;6215597;23;20005;-80
2023/06/08 06:23:41;;;;;;;4.75;3.30;;;22.90;89.90;;;;;;6215444;23;20080;-80
2023/06/08 06:26:06;;;;;;;5.20;3.08;;;23.00;89.80;;;;;;6215099;23;20076;-80
2023/06/08 06:28:32;;;;;;;2.67;2.42;;;23.00;87.50;;;;;;6214957;23;20024;-83
2023/06/08 06:30:58;;;;;;;3.58;2.63;;;23.00;88.20;;;;;;6214603;23;20005;-80
2023/06/08 06:33:23;;;;;;;3.22;2.92;;;23.10;87.30;;;;;;6215556;23;20319;-80
2023/06/08 06:35:50;;;;;;;2.95;2.40;;;23.10;86.40;;;;;;6213986;23;20004;-81
2023/06/08 06:38:17;;;;;;;7.68;1.90;;;23.10;86.00;;;;;;6214492;23;20004;-80
2023/06/08 06:40:43;;;;;;;2.80;2.03;;;23.10;86.40;;;;;;6214747;23;20112;-81
2023/06/08 06:43:09;;;;;;;2.95;2.17;;;23.20;86.10;;;;;;6213549;23;20058;-82
2023/06/08 06:45:37;;;;;;;4.63;2.97;;;23.30;86.20;;;;;;6212996;23;20027;-81
2023/06/08 06:48:03;;;;;;;3.28;2.88;;;23.30;85.90;;;;;;6213968;23;20058;-80
2023/06/08 06:50:29;;;;;;;5.00;3.35;;;23.30;86.20;;;;;;6214016;23;20008;-81
2023/06/08 06:52:55;;;;;;;3.97;2.90;;;23.40;85.80;;;;;;6213643;23;20167;-81
2023/06/08 06:55:20;;;;;;;3.78;2.63;;;23.40;85.10;;;;;;6215130;23;20004;-81
2023/06/08 06:57:48;;;;;;;3.50;2.65;;;23.50;85.10;;;;;;6215719;23;20028;-81
2023/06/08 07:00:15;;;;;;;2.28;1.88;;;23.60;84.20;;;;;;6215487;23;20001;-78
2023/06/08 07:02:40;;;;;;;1.73;1.48;;;23.60;83.50;;;;;;6215582;23;20316;-78
2023/06/08 07:05:07;;;;;;;4.28;2.55;;;23.60;83.70;;;;;;6215329;23;20007;-78
2023/06/08 07:07:35;;;;;;;3.53;2.80;;;23.70;83.20;;;;;;6215757;23;20007;-79
2023/06/08 07:10:02;;;;;;;5.82;1.95;;;23.80;82.70;;;;;;6215638;23;20020;-82
2023/06/08 07:12:32;;;;;;;4.25;2.47;;;23.80;82.70;;;;;;6187709;23;20454;-82
2023/06/08 07:14:57;;;;;;;3.63;2.75;;;23.80;83.00;;;;;;6204558;23;20024;-81
2023/06/08 07:17:23;;;;;;;3.75;2.33;;;23.80;83.00;;;;;;6181875;23;20001;-82
2023/06/08 07:19:53;;;;;;;2.90;2.33;;;23.90;83.40;;;;;;6184628;23;20052;-81
2023/06/08 07:22:21;;;;;;;3.35;2.08;;;23.90;83.50;;;;;;6184116;23;20072;-81
2023/06/08 07:24:47;;;;;;;2.20;2.00;;;24.00;83.50;;;;;;6158583;23;20324;-82
2023/06/08 07:27:13;;;;;;;1.88;1.50;;;24.10;82.80;;;;;;6184359;23;20032;-82
2023/06/08 07:29:39;;;;;;;6.38;1.50;;;24.20;82.10;;;;;;6183795;23;20005;-82
2023/06/08 07:32:05;;;;;;;2.35;1.75;;;24.20;82.20;;;;;;6183760;23;20012;-82
2023/06/08 07:34:31;;;;;;;2.65;1.77;;;24.30;82.10;;;;;;6182631;23;20011;-81
2023/06/08 07:36:56;;;;;;;2.13;1.67;;;24.30;80.80;;;;;;6184483;23;20072;-82
2023/06/08 07:39:22;;;;;;;1.92;1.73;;;24.40;81.30;;;;;;6183664;23;20025;-81
2023/06/08 07:41:48;;;;;;;1.88;1.45;;;24.40;81.10;;;;;;6156652;23;20064;-81
2023/06/08 07:44:13;;;;;;;2.10;1.90;;;24.50;80.70;;;;;;6183504;23;20035;-81
2023/06/08 07:46:39;;;;;;;1.50;1.40;;;24.50;80.20;;;;;;6183378;23;20001;-81
2023/06/08 07:49:05;;;;;;;2.20;1.70;;;24.50;79.90;;;;;;6182385;23;20012;-81
2023/06/08 07:51:30;;;;;;;2.38;1.70;;;24.60;79.30;;;;;;6183306;23;20005;-81
2023/06/08 07:53:56;;;;;;;2.80;2.05;;;24.60;79.70;;;;;;6183748;23;20059;-81
2023/06/08 07:56:22;;;;;;;1.88;1.63;;;24.70;78.30;;;;;;6186209;23;20412;-82
2023/06/08 07:58:48;;;;;;;2.95;1.80;;;24.70;78.60;;;;;;6159965;23;20376;-81
2023/06/08 08:01:15;;;;;;;1.65;1.50;;;24.70;78.70;;;;;;6186424;23;20001;-81
2023/06/08 08:03:40;;;;;;;1.75;1.50;;;24.70;78.00;;;;;;6186201;23;20036;-81
2023/06/08 08:06:06;;;;;;;2.75;1.85;;;24.80;77.70;;;;;;6160271;23;20009;-81
2023/06/08 08:08:32;;;;;;;1.52;1.42;;;24.80;78.10;;;;;;6159834;23;20411;-81
2023/06/08 08:10:58;;;;;;;1.77;1.67;;;24.80;77.80;;;;;;6185888;23;20005;-81
2023/06/08 08:13:23;;;;;;;3.25;1.83;;;24.90;78.10;;;;;;6159095;23;20072;-81
2023/06/08 08:15:49;;;;;;;2.28;1.83;;;25.00;77.80;;;;;;6186696;23;20083;-81
2023/06/08 08:18:15;;;;;;;3.35;2.35;;;25.00;78.10;;;;;;6185210;23;20039;-81
2023/06/08 08:20:40;;;;;;;2.65;1.75;;;25.10;77.70;;;;;;6159665;23;20052;-82
2023/06/08 08:23:06;;;;;;;2.28;1.77;;;25.10;77.80;;;;;;6185655;23;20009;-81
2023/06/08 08:25:33;;;;;;;2.10;1.90;;;25.10;77.90;;;;;;6159869;23;20058;-81
2023/06/08 08:27:58;;;;;;;2.78;2.30;;;25.20;77.60;;;;;;6185760;23;20012;-81
2023/06/08 08:30:24;;;;;;;2.10;1.90;;;25.20;76.80;;;;;;6185585;23;20001;-81
2023/06/08 08:32:50;;;;;;;3.75;3.08;;;25.30;77.20;;;;;;6185072;23;20013;-81
2023/06/08 08:35:16;;;;;;;2.80;2.22;;;25.40;77.60;;;;;;6185271;23;20001;-81
2023/06/08 08:37:42;;;;;;;3.60;2.20;;;25.30;77.60;;;;;;6186219;23;19997;-81
2023/06/08 08:40:11;;;;;;;2.63;2.25;;;25.40;78.00;;;;;;6185292;23;20001;-77
2023/06/08 08:42:47;;;;;;;3.33;2.03;;;25.50;78.50;;;;;;6185229;23;20004;-77
2023/06/08 08:45:27;;;;;;;3.88;2.70;;;25.60;78.80;;;;;;6158226;23;20008;-78
2023/06/08 08:47:53;;;;;;;;;;;25.70;77.50;;;;;;6186662;23;20001;-82
2023/06/08 08:50:20;;;;;;;2.40;1.70;;;25.70;77.30;;;;;;6185426;23;19900;-81
2023/06/08 08:52:48;;;;;;;2.20;1.98;;;25.80;76.80;;;;;;6184091;23;20005;-82
2023/06/08 08:55:13;;;;;;;3.28;2.10;;;25.90;76.80;;;;;;6184907;23;20025;-82
2023/06/08 08:57:41;;;;;;;3.65;2.10;;;26.00;76.30;;;;;;6158549;23;20009;-82
2023/06/08 09:00:13;;;;;;;2.10;1.85;;;26.00;76.30;;;;;;6185628;23;20007;-82
2023/06/08 09:02:39;;;;;;;2.10;1.88;;;26.10;75.80;;;;;;6159166;23;20009;-81
2023/06/08 09:05:05;;;;;;;2.75;1.90;;;26.20;76.30;;;;;;6185783;23;20071;-81
2023/06/08 09:07:31;;;;;;;2.60;2.25;;;26.20;75.60;;;;;;6184931;23;20078;-82
2023/06/08 09:10:15;;;;;;;2.67;2.47;;;26.30;75.70;;;;;;6185305;23;20079;-82
2023/06/08 09:12:42;;;;;;;3.55;2.35;;;26.40;75.90;;;;;;6185550;23;20140;-82
2023/06/08 09:15:16;;;;;;;2.92;2.38;;;26.40;75.50;;;;;;6184001;23;20016;-79
2023/06/08 09:17:44;;;;;;;3.92;2.40;;;26.40;75.40;;;;;;6158581;23;20005;-78
2023/06/08 09:20:11;;;;;;;3.40;2.05;;;26.40;75.80;;;;;;6184963;23;20000;-77
2023/06/08 09:22:38;;;;;;;2.28;2.08;;;26.40;75.60;;;;;;6185393;23;20011;-78
2023/06/08 09:25:05;;;;;;;3.40;2.55;;;26.50;75.40;;;;;;6186002;23;20005;-81
2023/06/08 09:27:31;;;;;;;2.97;1.85;;;26.50;74.60;;;;;;6185677;23;20001;-81
2023/06/08 09:29:59;;;;;;;4.18;2.70;;;26.60;75.30;;;;;;6185790;23;20011;-82
2023/06/08 09:32:33;;;;;;;5.03;2.85;;;26.80;75.40;;;;;;6185209;23;20009;-81
2023/06/08 09:35:03;;;;;;;2.53;2.33;;;26.80;74.50;;;;;;6157472;23;20363;-81
2023/06/08 09:37:31;;;;;;;3.05;2.45;;;26.90;74.70;;;;;;6184609;23;20001;-80
2023/06/08 09:40:04;;;;;;;4.20;2.60;;;26.90;75.30;;;;;;6185133;23;20001;-80
2023/06/08 09:42:50;;;;;;;5.03;2.70;;;27.00;75.50;;;;;;6185667;23;20063;-80
2023/06/08 09:45:17;;;;;;;3.92;2.85;;;27.20;75.80;;;;;;6184358;23;20009;-80
2023/06/08 09:47:43;;;;;;;4.85;2.55;;;27.20;75.60;;;;;;6158828;23;20012;-80
2023/06/08 09:50:10;;;;;;;5.88;3.50;;;27.40;75.30;;;;;;6184541;23;20012;-80
2023/06/08 09:52:38;;;;;;;7.70;4.10;;;27.50;74.60;;;;;;6184563;23;20331;-80
2023/06/08 09:55:05;;;;;;;12.05;2.83;;;27.50;74.50;;;;;;6157734;23;20005;-80
2023/06/08 09:57:37;;;;;;;4.82;2.92;;;27.60;74.50;;;;;;6158259;23;20012;-81
2023/06/08 10:00:17;;;;;;;4.03;2.72;;;27.70;74.20;;;;;;6158293;23;20067;-81
2023/06/08 10:03:24;;;;;;;8.18;2.83;;;27.70;74.00;;;;;;6185911;23;20005;-81
2023/06/08 10:05:50;;;;;;;8.77;3.35;;;27.80;74.50;;;;;;6182041;23;20020;-81
2023/06/08 10:08:21;;;;;;;9.38;4.63;;;27.90;74.20;;;;;;6185321;23;20019;-80
2023/06/08 10:10:47;;;;;;;5.47;2.92;;;27.90;73.50;;;;;;6184505;23;20001;-80
2023/06/08 10:13:14;;;;;;;5.47;2.75;;;28.10;74.40;;;;;;6185183;23;20332;-78
2023/06/08 10:15:41;;;;;;;3.08;2.70;;;28.20;74.50;;;;;;6185051;23;20020;-80
2023/06/08 10:18:08;;;;;;;5.30;2.60;;;28.20;74.60;;;;;;6184978;23;20030;-80
2023/06/08 10:20:37;;;;;;;8.13;4.07;;;28.30;73.80;;;;;;6185045;23;20412;-80
2023/06/08 10:23:04;;;;;;;6.78;3.83;;;28.40;72.60;;;;;;6184892;23;20005;-80
2023/06/08 10:25:31;;;;;;;5.80;4.03;;;28.40;72.40;;;;;;6185063;23;20001;-79
2023/06/08 10:28:05;;;;;;;5.13;4.40;;;28.50;72.10;;;;;;6184905;23;20009;-80
2023/06/08 10:30:39;;;;;;;5.22;3.10;;;28.60;72.00;;;;;;6158580;23;20087;-80
2023/06/08 10:33:15;;;;;;;3.28;2.50;;;28.70;72.40;;;;;;6157995;23;20009;-80
2023/06/08 10:36:00;;;;;;;5.60;3.40;;;28.80;72.70;;;;;;6157335;23;20001;-80
2023/06/08 10:38:26;;;;;;;4.15;2.35;;;28.90;71.90;;;;;;6184611;23;20459;-79
2023/06/08 10:40:52;;;;;;;5.70;2.83;;;29.00;72.30;;;;;;6184986;23;20001;-80
2023/06/08 10:43:26;;;;;;;4.80;3.05;;;29.20;72.30;;;;;;6159017;23;20036;-80
2023/06/08 10:45:52;;;;;;;2.72;2.28;;;29.40;71.30;;;;;;6184399;23;20001;-77
2023/06/08 10:48:19;;;;;;;3.30;2.50;;;29.40;70.40;;;;;;6183652;23;20005;-77
2023/06/08 10:50:51;;;;;;;4.57;3.00;;;29.50;70.10;;;;;;6184981;23;20396;-78
2023/06/08 10:53:18;;;;;;;6.90;3.08;;;29.50;69.60;;;;;;6184642;23;20005;-80
2023/06/08 10:55:52;;;;;;;4.70;2.33;;;29.50;69.80;;;;;;6185143;23;20054;-80
2023/06/08 10:58:20;;;;;;;2.60;2.40;;;29.50;69.70;;;;;;6185001;23;20029;-80
2023/06/08 11:01:03;;;;;;;3.78;2.45;;;29.60;69.50;;;;;;6158309;23;20044;-78
2023/06/08 11:03:44;;;;;;;4.00;2.70;;;29.80;69.40;;;;;;6185153;23;20012;-78
2023/06/08 11:06:13;;;;;;;3.83;2.55;;;29.90;68.40;;;;;;6185364;23;20016;-78
2023/06/08 11:08:39;;;;;;;2.90;2.60;;;30.00;67.40;;;;;;6185303;23;20009;-78
2023/06/08 11:11:05;;;;;;;8.05;4.70;;;30.10;67.80;;;;;;6184853;23;20009;-78
2023/06/08 11:13:31;;;;;;;3.75;2.78;;;30.20;67.40;;;;;;6184634;23;20514;-78
2023/06/08 11:15:57;;;;;;;2.97;2.20;;;30.30;67.50;;;;;;6185169;23;20013;-78
2023/06/08 11:18:24;;;;;;;3.50;2.60;;;30.50;66.90;;;;;;6158552;23;20005;-78
2023/06/08 11:20:50;;;;;;;4.15;3.15;;;30.70;66.90;;;;;;6184402;23;20392;-78
2023/06/08 11:23:15;;;;;;;5.47;3.60;;;30.80;66.70;;;;;;6184769;23;20004;-78
2023/06/08 11:25:46;;;;;;;3.97;3.30;;;30.90;66.20;;;;;;6183670;23;20080;-77
2023/06/08 11:28:13;;;;;;;3.10;2.67;;;31.10;66.50;;;;;;6184884;23;20012;-76
2023/06/08 11:30:38;;;;;;;3.40;2.58;;;31.20;66.80;;;;;;6157646;23;20065;-79
2023/06/08 11:33:06;;;;;;;4.10;2.70;;;31.50;66.10;;;;;;6157909;23;20009;-79
2023/06/08 11:35:33;;;;;;;2.55;1.90;;;31.90;64.40;;;;;;6185300;23;20032;-79
2023/06/08 11:38:00;;;;;;;4.82;2.88;;;32.30;64.30;;;;;;6185192;23;20001;-79
2023/06/08 11:40:28;;;;;;;2.20;2.00;;;32.80;63.90;;;;;;6184509;23;19997;-79
2023/06/08 11:42:55;;;;;;;2.38;2.08;;;33.20;62.50;;;;;;6184219;23;20125;-79
2023/06/08 11:45:22;;;;;;;2.83;2.50;;;33.60;61.60;;;;;;6184366;23;20029;-79
2023/06/08 11:47:53;;;;;;;3.50;2.60;;;33.90;60.20;;;;;;6184895;23;20005;-76
2023/06/08 11:50:19;;;;;;;2.33;2.03;;;34.20;59.10;;;;;;6184401;23;20060;-77
2023/06/08 11:52:46;;;;;;;4.93;2.40;;;34.40;59.00;;;;;;6183959;23;20025;-76
2023/06/08 11:55:18;;;;;;;5.00;2.35;;;34.70;59.00;;;;;;6183888;23;19997;-76
2023/06/08 11:58:03;;;;;;;4.70;2.35;;;34.90;56.70;;;;;;6184229;23;20001;-76
2023/06/08 12:00:34;;;;;;;3.05;2.70;;;35.10;56.20;;;;;;6184125;23;20001;-76
2023/06/08 12:03:02;;;;;;;3.13;2.75;;;35.30;56.80;;;;;;6183877;23;20012;-76
2023/06/08 12:05:31;;;;;;;3.33;3.03;;;35.40;54.80;;;;;;6184984;23;20379;-78
2023/06/08 12:08:14;;;;;;;3.30;2.75;;;35.50;56.20;;;;;;6185098;23;20016;-77
2023/06/08 12:10:41;;;;;;;2.55;2.28;;;35.50;54.70;;;;;;6184886;23;20001;-77
2023/06/08 12:13:08;;;;;;;3.63;2.65;;;35.70;55.80;;;;;;6183568;23;20032;-77
2023/06/08 12:15:46;;;;;;;2.67;2.20;;;35.80;54.30;;;;;;6183894;23;20020;-77
2023/06/08 12:18:16;;;;;;;2.85;2.40;;;35.60;53.10;;;;;;6184153;23;20344;-77
2023/06/08 12:20:44;;;;;;;6.50;3.13;;;35.60;53.30;;;;;;6157658;23;20001;-78
2023/06/08 12:23:12;;;;;;;3.78;2.75;;;35.50;53.30;;;;;;6184534;23;20005;-76
2023/06/08 12:25:39;;;;;;;6.75;2.95;;;35.60;52.80;;;;;;6184143;23;20009;-77
2023/06/08 12:28:05;;;;;;;4.15;3.15;;;35.40;53.90;;;;;;6183854;23;20001;-82
2023/06/08 12:30:31;;;;;;;8.48;2.72;;;35.10;53.90;;;;;;6158614;23;20020;-79
2023/06/08 12:32:57;;;;;;;4.03;2.13;;;35.10;53.40;;;;;;6183654;23;20005;-81
2023/06/08 12:35:26;;;;;;;3.22;2.22;;;35.20;53.80;;;;;;6184265;23;19997;-81
2023/06/08 12:37:51;;;;;;;2.55;2.05;;;35.30;53.20;;;;;;6184213;23;20446;-80
2023/06/08 12:40:20;;;;;;;3.33;2.50;;;35.40;53.60;;;;;;6183993;23;20072;-81
2023/06/08 12:42:49;;;;;;;3.30;2.63;;;35.60;53.70;;;;;;6185548;23;20463;-83
2023/06/08 12:45:20;;;;;;;7.03;2.95;;;35.70;51.20;;;;;;6185155;23;20228;-83
2023/06/08 12:47:46;;;;;;;9.30;2.97;;;35.70;52.60;;;;;;6184490;23;20697;-80
2023/06/08 12:50:13;;;;;;;2.70;2.38;;;35.60;52.80;;;;;;6154715;23;20008;-80
2023/06/08 12:52:39;;;;;;;3.08;2.30;;;35.70;51.80;;;;;;6182294;23;20085;-80